sensor_id;sensor_type;location;lat;lon;timestamp;P1;durP1;ratioP1;P2;durP2;ratioP2
19043;SDS011;9654;52.302;8.120;2022-08-19T00:01:15;11.50;;;8.07;;
19043;SDS011;9654;52.302;8.120;2022-08-19T00:03:42;11.60;;;7.67;;
19043;SDS011;9654;52.302;8.120;2022-08-19T00:06:09;9.23;;;7.13;;
19043;SDS011;9654;52.302;8.120;2022-08-19T00:08:36;12.30;;;8.67;;
19043;SDS011;9654;52.302;8.120;2022-08-19T00:11:03;12.53;;;9.20;;
19043;SDS011;9654;52.302;8.120;2022-08-19T00:13:30;10.70;;;8.17;;
19043;SDS011;9654;52.302;8.120;2022-08-19T00:15:56;15.80;;;8.90;;
19043;SDS011;9654;52.302;8.120;2022-08-19T00:18:26;11.43;;;8.10;;
19043;SDS011;9654;52.302;8.120;2022-08-19T00:20:53;11.10;;;8.40;;
19043;SDS011;9654;52.302;8.120;2022-08-19T00:23:20;12.90;;;8.97;;
19043;SDS011;9654;52.302;8.120;2022-08-19T00:25:47;9.27;;;6.83;;
19043;SDS011;9654;52.302;8.120;2022-08-19T00:28:13;9.73;;;6.80;;
19043;SDS011;9654;52.302;8.120;2022-08-19T00:30:40;12.53;;;8.50;;
19043;SDS011;9654;52.302;8.120;2022-08-19T00:33:07;10.73;;;7.97;;
19043;SDS011;9654;52.302;8.120;2022-08-19T00:35:35;10.23;;;7.97;;
19043;SDS011;9654;52.302;8.120;2022-08-19T00:38:03;8.57;;;6.97;;
19043;SDS011;9654;52.302;8.120;2022-08-19T00:40:31;12.40;;;9.13;;
19043;SDS011;9654;52.302;8.120;2022-08-19T00:42:58;8.43;;;6.20;;
19043;SDS011;9654;52.302;8.120;2022-08-19T00:45:26;12.83;;;8.70;;
19043;SDS011;9654;52.302;8.120;2022-08-19T00:47:56;9.30;;;7.83;;
19043;SDS011;9654;52.302;8.120;2022-08-19T00:50:23;10.57;;;6.87;;
19043;SDS011;9654;52.302;8.120;2022-08-19T00:52:51;13.03;;;8.60;;
19043;SDS011;9654;52.302;8.120;2022-08-19T00:55:20;9.40;;;6.93;;
19043;SDS011;9654;52.302;8.120;2022-08-19T00:57:51;10.60;;;7.00;;
19043;SDS011;9654;52.302;8.120;2022-08-19T01:00:21;10.13;;;7.83;;
19043;SDS011;9654;52.302;8.120;2022-08-19T01:02:50;11.03;;;8.27;;
19043;SDS011;9654;52.302;8.120;2022-08-19T01:05:20;15.30;;;10.40;;
19043;SDS011;9654;52.302;8.120;2022-08-19T01:07:49;16.70;;;11.03;;
19043;SDS011;9654;52.302;8.120;2022-08-19T01:10:19;13.27;;;9.80;;
19043;SDS011;9654;52.302;8.120;2022-08-19T01:12:49;15.00;;;9.73;;
19043;SDS011;9654;52.302;8.120;2022-08-19T01:15:19;18.63;;;10.67;;
19043;SDS011;9654;52.302;8.120;2022-08-19T01:17:49;15.70;;;9.73;;
19043;SDS011;9654;52.302;8.120;2022-08-19T01:20:19;12.73;;;9.47;;
19043;SDS011;9654;52.302;8.120;2022-08-19T01:22:50;14.50;;;9.97;;
19043;SDS011;9654;52.302;8.120;2022-08-19T01:25:20;14.30;;;11.57;;
19043;SDS011;9654;52.302;8.120;2022-08-19T01:27:50;17.43;;;10.17;;
19043;SDS011;9654;52.302;8.120;2022-08-19T01:30:20;15.00;;;10.37;;
19043;SDS011;9654;52.302;8.120;2022-08-19T01:32:48;18.63;;;11.63;;
19043;SDS011;9654;52.302;8.120;2022-08-19T01:35:17;11.47;;;9.00;;
19043;SDS011;9654;52.302;8.120;2022-08-19T01:37:45;11.30;;;8.73;;
19043;SDS011;9654;52.302;8.120;2022-08-19T01:40:15;13.37;;;9.77;;
19043;SDS011;9654;52.302;8.120;2022-08-19T01:42:45;14.73;;;11.23;;
19043;SDS011;9654;52.302;8.120;2022-08-19T01:45:12;18.90;;;12.03;;
19043;SDS011;9654;52.302;8.120;2022-08-19T01:47:39;17.23;;;10.83;;
19043;SDS011;9654;52.302;8.120;2022-08-19T01:50:07;11.13;;;9.03;;
19043;SDS011;9654;52.302;8.120;2022-08-19T01:52:36;17.97;;;10.80;;
19043;SDS011;9654;52.302;8.120;2022-08-19T01:55:04;11.73;;;9.47;;
19043;SDS011;9654;52.302;8.120;2022-08-19T01:57:33;13.43;;;8.87;;
19043;SDS011;9654;52.302;8.120;2022-08-19T02:00:00;11.83;;;7.93;;
19043;SDS011;9654;52.302;8.120;2022-08-19T02:02:30;15.63;;;11.30;;
19043;SDS011;9654;52.302;8.120;2022-08-19T02:04:57;14.73;;;9.80;;
19043;SDS011;9654;52.302;8.120;2022-08-19T02:07:24;18.37;;;11.97;;
19043;SDS011;9654;52.302;8.120;2022-08-19T02:09:53;11.47;;;9.90;;
19043;SDS011;9654;52.302;8.120;2022-08-19T02:12:20;13.97;;;9.80;;
19043;SDS011;9654;52.302;8.120;2022-08-19T02:14:49;16.53;;;11.37;;
19043;SDS011;9654;52.302;8.120;2022-08-19T02:17:15;20.40;;;12.90;;
19043;SDS011;9654;52.302;8.120;2022-08-19T02:19:43;19.07;;;12.60;;
19043;SDS011;9654;52.302;8.120;2022-08-19T02:22:10;18.07;;;11.87;;
19043;SDS011;9654;52.302;8.120;2022-08-19T02:24:36;18.93;;;12.63;;
19043;SDS011;9654;52.302;8.120;2022-08-19T02:27:04;18.13;;;12.50;;
19043;SDS011;9654;52.302;8.120;2022-08-19T02:29:31;24.30;;;13.40;;
19043;SDS011;9654;52.302;8.120;2022-08-19T02:31:59;17.33;;;11.13;;
19043;SDS011;9654;52.302;8.120;2022-08-19T02:34:26;20.10;;;13.33;;
19043;SDS011;9654;52.302;8.120;2022-08-19T02:36:52;24.47;;;13.37;;
19043;SDS011;9654;52.302;8.120;2022-08-19T02:39:19;22.73;;;13.53;;
19043;SDS011;9654;52.302;8.120;2022-08-19T02:41:45;22.77;;;14.27;;
19043;SDS011;9654;52.302;8.120;2022-08-19T02:44:12;17.97;;;11.63;;
19043;SDS011;9654;52.302;8.120;2022-08-19T02:46:38;15.13;;;11.53;;
19043;SDS011;9654;52.302;8.120;2022-08-19T02:49:07;18.73;;;10.60;;
19043;SDS011;9654;52.302;8.120;2022-08-19T02:51:35;18.70;;;11.80;;
19043;SDS011;9654;52.302;8.120;2022-08-19T02:54:03;22.47;;;12.67;;
19043;SDS011;9654;52.302;8.120;2022-08-19T02:56:31;16.67;;;11.37;;
19043;SDS011;9654;52.302;8.120;2022-08-19T02:59:00;18.67;;;12.10;;
19043;SDS011;9654;52.302;8.120;2022-08-19T03:01:28;17.20;;;12.03;;
19043;SDS011;9654;52.302;8.120;2022-08-19T03:03:56;19.90;;;12.87;;
19043;SDS011;9654;52.302;8.120;2022-08-19T03:06:25;16.90;;;12.10;;
19043;SDS011;9654;52.302;8.120;2022-08-19T03:08:53;19.17;;;11.23;;
19043;SDS011;9654;52.302;8.120;2022-08-19T03:11:21;17.67;;;11.53;;
19043;SDS011;9654;52.302;8.120;2022-08-19T03:13:54;21.27;;;12.97;;
19043;SDS011;9654;52.302;8.120;2022-08-19T03:16:22;20.33;;;13.23;;
19043;SDS011;9654;52.302;8.120;2022-08-19T03:18:51;24.57;;;14.40;;
19043;SDS011;9654;52.302;8.120;2022-08-19T03:21:20;20.00;;;13.53;;
19043;SDS011;9654;52.302;8.120;2022-08-19T03:23:53;18.70;;;12.67;;
19043;SDS011;9654;52.302;8.120;2022-08-19T03:26:20;18.87;;;12.30;;
19043;SDS011;9654;52.302;8.120;2022-08-19T03:28:47;20.50;;;12.37;;
19043;SDS011;9654;52.302;8.120;2022-08-19T03:31:15;17.03;;;12.27;;
19043;SDS011;9654;52.302;8.120;2022-08-19T03:33:44;19.23;;;10.73;;
19043;SDS011;9654;52.302;8.120;2022-08-19T03:36:12;21.97;;;13.23;;
19043;SDS011;9654;52.302;8.120;2022-08-19T03:38:42;19.20;;;12.30;;
19043;SDS011;9654;52.302;8.120;2022-08-19T03:41:13;20.23;;;12.90;;
19043;SDS011;9654;52.302;8.120;2022-08-19T03:43:42;23.27;;;14.03;;
19043;SDS011;9654;52.302;8.120;2022-08-19T03:46:12;17.63;;;12.70;;
19043;SDS011;9654;52.302;8.120;2022-08-19T03:48:41;17.10;;;11.13;;
19043;SDS011;9654;52.302;8.120;2022-08-19T03:51:15;21.23;;;14.00;;
19043;SDS011;9654;52.302;8.120;2022-08-19T03:53:42;19.37;;;13.40;;
19043;SDS011;9654;52.302;8.120;2022-08-19T03:56:09;16.83;;;12.37;;
19043;SDS011;9654;52.302;8.120;2022-08-19T03:58:39;21.23;;;13.37;;
19043;SDS011;9654;52.302;8.120;2022-08-19T04:01:07;18.27;;;12.70;;
19043;SDS011;9654;52.302;8.120;2022-08-19T04:03:35;20.80;;;12.70;;
19043;SDS011;9654;52.302;8.120;2022-08-19T04:06:08;20.50;;;14.47;;
19043;SDS011;9654;52.302;8.120;2022-08-19T04:08:36;15.67;;;10.60;;
19043;SDS011;9654;52.302;8.120;2022-08-19T04:11:06;16.13;;;10.90;;
19043;SDS011;9654;52.302;8.120;2022-08-19T04:13:33;12.53;;;9.70;;
19043;SDS011;9654;52.302;8.120;2022-08-19T04:16:02;14.17;;;10.93;;
19043;SDS011;9654;52.302;8.120;2022-08-19T04:18:29;11.60;;;9.33;;
19043;SDS011;9654;52.302;8.120;2022-08-19T04:20:56;12.83;;;9.77;;
19043;SDS011;9654;52.302;8.120;2022-08-19T04:23:23;12.07;;;8.93;;
19043;SDS011;9654;52.302;8.120;2022-08-19T04:25:50;14.53;;;10.37;;
19043;SDS011;9654;52.302;8.120;2022-08-19T04:28:17;19.97;;;12.97;;
19043;SDS011;9654;52.302;8.120;2022-08-19T04:30:44;18.33;;;11.23;;
19043;SDS011;9654;52.302;8.120;2022-08-19T04:33:15;16.93;;;12.27;;
19043;SDS011;9654;52.302;8.120;2022-08-19T04:35:46;18.83;;;11.17;;
19043;SDS011;9654;52.302;8.120;2022-08-19T04:38:13;15.17;;;11.27;;
19043;SDS011;9654;52.302;8.120;2022-08-19T04:40:41;12.40;;;9.40;;
19043;SDS011;9654;52.302;8.120;2022-08-19T04:43:27;12.67;;;9.50;;
19043;SDS011;9654;52.302;8.120;2022-08-19T04:45:55;14.00;;;9.27;;
19043;SDS011;9654;52.302;8.120;2022-08-19T04:48:23;11.30;;;8.97;;
19043;SDS011;9654;52.302;8.120;2022-08-19T04:50:51;13.43;;;9.37;;
19043;SDS011;9654;52.302;8.120;2022-08-19T04:53:22;16.80;;;10.70;;
19043;SDS011;9654;52.302;8.120;2022-08-19T04:55:49;13.47;;;10.07;;
19043;SDS011;9654;52.302;8.120;2022-08-19T04:58:16;15.03;;;11.27;;
19043;SDS011;9654;52.302;8.120;2022-08-19T05:00:43;19.03;;;12.07;;
19043;SDS011;9654;52.302;8.120;2022-08-19T05:03:09;19.43;;;12.77;;
19043;SDS011;9654;52.302;8.120;2022-08-19T05:05:39;20.37;;;12.23;;
19043;SDS011;9654;52.302;8.120;2022-08-19T05:08:07;19.17;;;12.73;;
19043;SDS011;9654;52.302;8.120;2022-08-19T05:10:34;20.67;;;14.23;;
19043;SDS011;9654;52.302;8.120;2022-08-19T05:13:01;25.70;;;13.77;;
19043;SDS011;9654;52.302;8.120;2022-08-19T05:15:28;27.10;;;15.40;;
19043;SDS011;9654;52.302;8.120;2022-08-19T05:17:55;24.93;;;15.60;;
19043;SDS011;9654;52.302;8.120;2022-08-19T05:20:41;19.20;;;14.17;;
19043;SDS011;9654;52.302;8.120;2022-08-19T05:23:25;29.93;;;15.40;;
19043;SDS011;9654;52.302;8.120;2022-08-19T05:25:52;26.00;;;14.97;;
19043;SDS011;9654;52.302;8.120;2022-08-19T05:28:18;34.57;;;15.90;;
19043;SDS011;9654;52.302;8.120;2022-08-19T05:30:46;32.37;;;14.07;;
19043;SDS011;9654;52.302;8.120;2022-08-19T05:33:15;53.37;;;18.00;;
19043;SDS011;9654;52.302;8.120;2022-08-19T05:35:44;48.03;;;15.10;;
19043;SDS011;9654;52.302;8.120;2022-08-19T05:38:11;46.97;;;18.07;;
19043;SDS011;9654;52.302;8.120;2022-08-19T05:40:38;29.93;;;14.67;;
19043;SDS011;9654;52.302;8.120;2022-08-19T05:43:06;27.37;;;15.37;;
19043;SDS011;9654;52.302;8.120;2022-08-19T05:45:37;26.50;;;16.67;;
19043;SDS011;9654;52.302;8.120;2022-08-19T05:48:05;22.47;;;16.23;;
19043;SDS011;9654;52.302;8.120;2022-08-19T05:50:32;27.53;;;18.13;;
19043;SDS011;9654;52.302;8.120;2022-08-19T05:53:00;24.13;;;15.20;;
19043;SDS011;9654;52.302;8.120;2022-08-19T05:55:26;23.33;;;15.43;;
19043;SDS011;9654;52.302;8.120;2022-08-19T05:57:53;28.07;;;14.47;;
19043;SDS011;9654;52.302;8.120;2022-08-19T06:00:20;26.73;;;16.30;;
19043;SDS011;9654;52.302;8.120;2022-08-19T06:02:48;23.43;;;15.80;;
19043;SDS011;9654;52.302;8.120;2022-08-19T06:05:16;29.53;;;16.83;;
19043;SDS011;9654;52.302;8.120;2022-08-19T06:07:43;25.37;;;16.53;;
19043;SDS011;9654;52.302;8.120;2022-08-19T06:10:11;26.63;;;16.43;;
19043;SDS011;9654;52.302;8.120;2022-08-19T06:12:38;24.53;;;15.67;;
19043;SDS011;9654;52.302;8.120;2022-08-19T06:15:05;24.57;;;15.43;;
19043;SDS011;9654;52.302;8.120;2022-08-19T06:17:34;24.90;;;16.23;;
19043;SDS011;9654;52.302;8.120;2022-08-19T06:20:01;21.57;;;14.90;;
19043;SDS011;9654;52.302;8.120;2022-08-19T06:22:28;29.57;;;15.67;;
19043;SDS011;9654;52.302;8.120;2022-08-19T06:24:55;26.87;;;15.60;;
19043;SDS011;9654;52.302;8.120;2022-08-19T06:27:23;25.57;;;16.43;;
19043;SDS011;9654;52.302;8.120;2022-08-19T06:29:50;27.60;;;15.97;;
19043;SDS011;9654;52.302;8.120;2022-08-19T06:32:18;28.33;;;17.20;;
19043;SDS011;9654;52.302;8.120;2022-08-19T06:34:44;21.73;;;15.33;;
19043;SDS011;9654;52.302;8.120;2022-08-19T06:37:12;22.27;;;14.67;;
19043;SDS011;9654;52.302;8.120;2022-08-19T06:39:40;20.73;;;14.67;;
19043;SDS011;9654;52.302;8.120;2022-08-19T06:42:08;19.93;;;13.30;;
19043;SDS011;9654;52.302;8.120;2022-08-19T06:44:40;17.93;;;12.67;;
19043;SDS011;9654;52.302;8.120;2022-08-19T06:47:08;18.93;;;11.80;;
19043;SDS011;9654;52.302;8.120;2022-08-19T06:49:37;17.07;;;12.10;;
19043;SDS011;9654;52.302;8.120;2022-08-19T06:52:07;17.73;;;11.23;;
19043;SDS011;9654;52.302;8.120;2022-08-19T06:54:36;17.27;;;11.30;;
19043;SDS011;9654;52.302;8.120;2022-08-19T06:57:04;18.77;;;11.80;;
19043;SDS011;9654;52.302;8.120;2022-08-19T06:59:31;22.10;;;10.17;;
19043;SDS011;9654;52.302;8.120;2022-08-19T07:02:01;20.67;;;10.53;;
19043;SDS011;9654;52.302;8.120;2022-08-19T07:04:31;16.50;;;9.47;;
19043;SDS011;9654;52.302;8.120;2022-08-19T07:07:00;14.47;;;9.37;;
19043;SDS011;9654;52.302;8.120;2022-08-19T07:09:30;16.47;;;9.80;;
19043;SDS011;9654;52.302;8.120;2022-08-19T07:11:57;15.47;;;9.83;;
19043;SDS011;9654;52.302;8.120;2022-08-19T07:14:26;13.63;;;9.70;;
19043;SDS011;9654;52.302;8.120;2022-08-19T07:16:54;13.63;;;8.63;;
19043;SDS011;9654;52.302;8.120;2022-08-19T07:19:24;19.80;;;8.80;;
19043;SDS011;9654;52.302;8.120;2022-08-19T07:21:52;14.70;;;8.43;;
19043;SDS011;9654;52.302;8.120;2022-08-19T07:24:20;20.40;;;8.00;;
19043;SDS011;9654;52.302;8.120;2022-08-19T07:26:50;11.57;;;9.33;;
19043;SDS011;9654;52.302;8.120;2022-08-19T07:29:18;16.97;;;9.10;;
19043;SDS011;9654;52.302;8.120;2022-08-19T07:31:48;15.30;;;8.33;;
19043;SDS011;9654;52.302;8.120;2022-08-19T07:34:15;14.50;;;8.40;;
19043;SDS011;9654;52.302;8.120;2022-08-19T07:36:43;16.20;;;9.27;;
19043;SDS011;9654;52.302;8.120;2022-08-19T07:39:12;16.73;;;9.43;;
19043;SDS011;9654;52.302;8.120;2022-08-19T07:41:42;14.80;;;8.00;;
19043;SDS011;9654;52.302;8.120;2022-08-19T07:44:09;13.63;;;8.87;;
19043;SDS011;9654;52.302;8.120;2022-08-19T07:46:38;14.00;;;9.07;;
19043;SDS011;9654;52.302;8.120;2022-08-19T07:49:11;19.23;;;9.77;;
19043;SDS011;9654;52.302;8.120;2022-08-19T07:51:43;8.60;;;7.23;;
19043;SDS011;9654;52.302;8.120;2022-08-19T07:54:11;11.87;;;7.87;;
19043;SDS011;9654;52.302;8.120;2022-08-19T07:56:37;11.03;;;8.63;;
19043;SDS011;9654;52.302;8.120;2022-08-19T07:59:04;14.60;;;7.80;;
19043;SDS011;9654;52.302;8.120;2022-08-19T08:01:31;10.13;;;7.83;;
19043;SDS011;9654;52.302;8.120;2022-08-19T08:03:58;12.03;;;7.13;;
19043;SDS011;9654;52.302;8.120;2022-08-19T08:06:43;12.83;;;7.53;;
19043;SDS011;9654;52.302;8.120;2022-08-19T08:09:29;10.23;;;6.73;;
19043;SDS011;9654;52.302;8.120;2022-08-19T08:11:59;7.23;;;6.20;;
19043;SDS011;9654;52.302;8.120;2022-08-19T08:14:32;9.90;;;6.30;;
19043;SDS011;9654;52.302;8.120;2022-08-19T08:17:04;10.63;;;6.70;;
19043;SDS011;9654;52.302;8.120;2022-08-19T08:19:31;8.53;;;5.70;;
19043;SDS011;9654;52.302;8.120;2022-08-19T08:22:00;6.43;;;5.07;;
19043;SDS011;9654;52.302;8.120;2022-08-19T08:24:28;8.50;;;5.73;;
19043;SDS011;9654;52.302;8.120;2022-08-19T08:26:57;5.73;;;5.10;;
19043;SDS011;9654;52.302;8.120;2022-08-19T08:29:25;5.17;;;4.03;;
19043;SDS011;9654;52.302;8.120;2022-08-19T08:31:52;3.83;;;3.43;;
19043;SDS011;9654;52.302;8.120;2022-08-19T08:34:19;11.50;;;4.70;;
19043;SDS011;9654;52.302;8.120;2022-08-19T08:36:46;5.50;;;3.67;;
19043;SDS011;9654;52.302;8.120;2022-08-19T08:39:17;5.17;;;3.77;;
19043;SDS011;9654;52.302;8.120;2022-08-19T08:41:46;6.97;;;3.63;;
19043;SDS011;9654;52.302;8.120;2022-08-19T08:44:20;5.23;;;3.73;;
19043;SDS011;9654;52.302;8.120;2022-08-19T08:46:49;4.73;;;3.80;;
19043;SDS011;9654;52.302;8.120;2022-08-19T08:49:23;7.43;;;3.77;;
19043;SDS011;9654;52.302;8.120;2022-08-19T08:51:57;7.38;;;4.18;;
19043;SDS011;9654;52.302;8.120;2022-08-19T08:54:32;5.43;;;3.80;;
19043;SDS011;9654;52.302;8.120;2022-08-19T08:57:02;8.43;;;4.03;;
19043;SDS011;9654;52.302;8.120;2022-08-19T08:59:33;4.88;;;3.70;;
19043;SDS011;9654;52.302;8.120;2022-08-19T09:02:03;7.87;;;4.00;;
19043;SDS011;9654;52.302;8.120;2022-08-19T09:04:30;3.83;;;3.50;;
19043;SDS011;9654;52.302;8.120;2022-08-19T09:07:00;8.20;;;3.70;;
19043;SDS011;9654;52.302;8.120;2022-08-19T09:09:45;4.32;;;3.83;;
19043;SDS011;9654;52.302;8.120;2022-08-19T09:12:16;3.30;;;3.00;;
19043;SDS011;9654;52.302;8.120;2022-08-19T09:14:49;7.90;;;3.67;;
19043;SDS011;9654;52.302;8.120;2022-08-19T09:17:20;9.13;;;3.90;;
19043;SDS011;9654;52.302;8.120;2022-08-19T09:19:56;7.80;;;3.80;;
19043;SDS011;9654;52.302;8.120;2022-08-19T09:22:25;5.25;;;2.95;;
19043;SDS011;9654;52.302;8.120;2022-08-19T09:24:54;6.40;;;3.83;;
19043;SDS011;9654;52.302;8.120;2022-08-19T09:27:21;4.55;;;3.67;;
19043;SDS011;9654;52.302;8.120;2022-08-19T09:29:50;5.85;;;3.78;;
19043;SDS011;9654;52.302;8.120;2022-08-19T09:32:18;5.68;;;3.90;;
19043;SDS011;9654;52.302;8.120;2022-08-19T09:34:46;4.55;;;3.28;;
19043;SDS011;9654;52.302;8.120;2022-08-19T09:37:13;7.47;;;3.63;;
19043;SDS011;9654;52.302;8.120;2022-08-19T09:39:39;3.40;;;3.10;;
19043;SDS011;9654;52.302;8.120;2022-08-19T09:42:09;8.35;;;3.45;;
19043;SDS011;9654;52.302;8.120;2022-08-19T09:44:37;7.65;;;3.20;;
19043;SDS011;9654;52.302;8.120;2022-08-19T09:47:04;7.10;;;3.80;;
19043;SDS011;9654;52.302;8.120;2022-08-19T09:49:31;3.03;;;2.60;;
19043;SDS011;9654;52.302;8.120;2022-08-19T09:51:59;4.35;;;2.95;;
19043;SDS011;9654;52.302;8.120;2022-08-19T09:54:26;4.13;;;2.67;;
19043;SDS011;9654;52.302;8.120;2022-08-19T09:56:53;4.85;;;3.13;;
19043;SDS011;9654;52.302;8.120;2022-08-19T09:59:23;5.50;;;2.97;;
19043;SDS011;9654;52.302;8.120;2022-08-19T10:01:49;3.13;;;2.92;;
19043;SDS011;9654;52.302;8.120;2022-08-19T10:04:17;3.67;;;2.42;;
19043;SDS011;9654;52.302;8.120;2022-08-19T10:06:44;3.40;;;2.45;;
19043;SDS011;9654;52.302;8.120;2022-08-19T10:09:12;3.20;;;2.78;;
19043;SDS011;9654;52.302;8.120;2022-08-19T10:11:40;4.72;;;3.25;;
19043;SDS011;9654;52.302;8.120;2022-08-19T10:14:11;4.38;;;2.70;;
19043;SDS011;9654;52.302;8.120;2022-08-19T10:16:39;2.97;;;2.58;;
19043;SDS011;9654;52.302;8.120;2022-08-19T10:19:07;3.72;;;2.50;;
19043;SDS011;9654;52.302;8.120;2022-08-19T10:21:34;7.32;;;2.38;;
19043;SDS011;9654;52.302;8.120;2022-08-19T10:24:03;2.40;;;2.08;;
19043;SDS011;9654;52.302;8.120;2022-08-19T10:26:31;3.20;;;2.50;;
19043;SDS011;9654;52.302;8.120;2022-08-19T10:29:01;2.45;;;2.15;;
19043;SDS011;9654;52.302;8.120;2022-08-19T10:31:30;3.70;;;2.55;;
19043;SDS011;9654;52.302;8.120;2022-08-19T10:33:59;4.20;;;3.05;;
19043;SDS011;9654;52.302;8.120;2022-08-19T10:36:28;2.35;;;2.20;;
19043;SDS011;9654;52.302;8.120;2022-08-19T10:38:59;5.85;;;2.53;;
19043;SDS011;9654;52.302;8.120;2022-08-19T10:41:29;5.50;;;2.38;;
19043;SDS011;9654;52.302;8.120;2022-08-19T10:43:57;4.78;;;2.50;;
19043;SDS011;9654;52.302;8.120;2022-08-19T10:46:26;3.42;;;2.58;;
19043;SDS011;9654;52.302;8.120;2022-08-19T10:48:57;4.45;;;2.40;;
19043;SDS011;9654;52.302;8.120;2022-08-19T10:51:26;2.67;;;2.17;;
19043;SDS011;9654;52.302;8.120;2022-08-19T10:54:11;4.07;;;2.17;;
19043;SDS011;9654;52.302;8.120;2022-08-19T10:56:37;8.60;;;2.70;;
19043;SDS011;9654;52.302;8.120;2022-08-19T10:59:19;2.60;;;2.40;;
19043;SDS011;9654;52.302;8.120;2022-08-19T11:01:47;4.93;;;2.65;;
19043;SDS011;9654;52.302;8.120;2022-08-19T11:04:16;2.28;;;2.08;;
19043;SDS011;9654;52.302;8.120;2022-08-19T11:06:43;2.85;;;2.47;;
19043;SDS011;9654;52.302;8.120;2022-08-19T11:09:12;2.83;;;2.30;;
19043;SDS011;9654;52.302;8.120;2022-08-19T11:11:40;2.97;;;2.67;;
19043;SDS011;9654;52.302;8.120;2022-08-19T11:14:07;2.72;;;2.45;;
19043;SDS011;9654;52.302;8.120;2022-08-19T11:16:35;2.78;;;2.58;;
19043;SDS011;9654;52.302;8.120;2022-08-19T11:19:04;4.95;;;2.20;;
19043;SDS011;9654;52.302;8.120;2022-08-19T11:21:35;4.50;;;2.33;;
19043;SDS011;9654;52.302;8.120;2022-08-19T11:24:05;3.88;;;2.70;;
19043;SDS011;9654;52.302;8.120;2022-08-19T11:26:34;5.65;;;3.00;;
19043;SDS011;9654;52.302;8.120;2022-08-19T11:29:03;3.03;;;2.40;;
19043;SDS011;9654;52.302;8.120;2022-08-19T11:31:32;4.40;;;2.45;;
19043;SDS011;9654;52.302;8.120;2022-08-19T11:34:01;6.32;;;2.45;;
19043;SDS011;9654;52.302;8.120;2022-08-19T11:36:30;2.83;;;2.28;;
19043;SDS011;9654;52.302;8.120;2022-08-19T11:38:58;5.38;;;2.40;;
19043;SDS011;9654;52.302;8.120;2022-08-19T11:41:25;5.07;;;2.30;;
19043;SDS011;9654;52.302;8.120;2022-08-19T11:43:53;2.35;;;2.25;;
19043;SDS011;9654;52.302;8.120;2022-08-19T11:46:21;5.05;;;2.17;;
19043;SDS011;9654;52.302;8.120;2022-08-19T11:48:49;1.88;;;1.75;;
19043;SDS011;9654;52.302;8.120;2022-08-19T11:51:17;2.55;;;2.13;;
19043;SDS011;9654;52.302;8.120;2022-08-19T11:53:46;2.20;;;2.00;;
19043;SDS011;9654;52.302;8.120;2022-08-19T11:56:14;4.85;;;2.45;;
19043;SDS011;9654;52.302;8.120;2022-08-19T11:58:41;2.20;;;2.00;;
19043;SDS011;9654;52.302;8.120;2022-08-19T12:01:08;2.88;;;2.53;;
19043;SDS011;9654;52.302;8.120;2022-08-19T12:03:36;3.70;;;2.63;;
19043;SDS011;9654;52.302;8.120;2022-08-19T12:06:04;2.22;;;2.08;;
19043;SDS011;9654;52.302;8.120;2022-08-19T12:08:32;3.85;;;2.05;;
19043;SDS011;9654;52.302;8.120;2022-08-19T12:10:59;2.97;;;2.22;;
19043;SDS011;9654;52.302;8.120;2022-08-19T12:13:28;3.03;;;2.30;;
19043;SDS011;9654;52.302;8.120;2022-08-19T12:15:56;2.22;;;2.13;;
19043;SDS011;9654;52.302;8.120;2022-08-19T12:18:24;2.42;;;2.10;;
19043;SDS011;9654;52.302;8.120;2022-08-19T12:20:51;4.50;;;2.10;;
19043;SDS011;9654;52.302;8.120;2022-08-19T12:23:19;2.00;;;1.80;;
19043;SDS011;9654;52.302;8.120;2022-08-19T12:25:47;3.70;;;2.47;;
19043;SDS011;9654;52.302;8.120;2022-08-19T12:28:16;3.65;;;2.20;;
19043;SDS011;9654;52.302;8.120;2022-08-19T12:30:45;2.63;;;2.10;;
19043;SDS011;9654;52.302;8.120;2022-08-19T12:33:12;2.75;;;2.03;;
19043;SDS011;9654;52.302;8.120;2022-08-19T12:35:40;2.28;;;2.08;;
19043;SDS011;9654;52.302;8.120;2022-08-19T12:38:07;4.43;;;2.30;;
19043;SDS011;9654;52.302;8.120;2022-08-19T12:40:34;2.90;;;1.95;;
19043;SDS011;9654;52.302;8.120;2022-08-19T12:43:01;4.20;;;2.55;;
19043;SDS011;9654;52.302;8.120;2022-08-19T12:45:28;2.75;;;2.47;;
19043;SDS011;9654;52.302;8.120;2022-08-19T12:47:56;2.35;;;2.08;;
19043;SDS011;9654;52.302;8.120;2022-08-19T12:50:23;2.17;;;2.08;;
19043;SDS011;9654;52.302;8.120;2022-08-19T12:52:49;4.50;;;2.10;;
19043;SDS011;9654;52.302;8.120;2022-08-19T12:55:17;3.17;;;2.03;;
19043;SDS011;9654;52.302;8.120;2022-08-19T12:57:44;3.15;;;2.10;;
19043;SDS011;9654;52.302;8.120;2022-08-19T13:00:14;2.63;;;2.00;;
19043;SDS011;9654;52.302;8.120;2022-08-19T13:02:44;2.45;;;2.30;;
19043;SDS011;9654;52.302;8.120;2022-08-19T13:05:14;4.43;;;2.50;;
19043;SDS011;9654;52.302;8.120;2022-08-19T13:07:44;2.97;;;2.10;;
19043;SDS011;9654;52.302;8.120;2022-08-19T13:10:12;5.88;;;2.25;;
19043;SDS011;9654;52.302;8.120;2022-08-19T13:12:41;2.35;;;1.92;;
19043;SDS011;9654;52.302;8.120;2022-08-19T13:15:10;3.17;;;2.10;;
19043;SDS011;9654;52.302;8.120;2022-08-19T13:17:38;2.20;;;2.10;;
19043;SDS011;9654;52.302;8.120;2022-08-19T13:20:53;3.03;;;2.53;;
19043;SDS011;9654;52.302;8.120;2022-08-19T13:23:21;3.15;;;2.20;;
19043;SDS011;9654;52.302;8.120;2022-08-19T13:25:55;2.60;;;2.40;;
19043;SDS011;9654;52.302;8.120;2022-08-19T13:28:22;3.17;;;2.65;;
19043;SDS011;9654;52.302;8.120;2022-08-19T13:30:49;5.68;;;3.25;;
19043;SDS011;9654;52.302;8.120;2022-08-19T13:33:33;3.92;;;2.97;;
19043;SDS011;9654;52.302;8.120;2022-08-19T13:36:01;2.50;;;2.30;;
19043;SDS011;9654;52.302;8.120;2022-08-19T13:38:32;2.85;;;2.65;;
19043;SDS011;9654;52.302;8.120;2022-08-19T13:41:03;2.80;;;2.60;;
19043;SDS011;9654;52.302;8.120;2022-08-19T13:43:32;2.53;;;2.33;;
19043;SDS011;9654;52.302;8.120;2022-08-19T13:45:59;4.88;;;2.50;;
19043;SDS011;9654;52.302;8.120;2022-08-19T13:48:34;2.95;;;2.50;;
19043;SDS011;9654;52.302;8.120;2022-08-19T13:51:04;2.22;;;2.10;;
19043;SDS011;9654;52.302;8.120;2022-08-19T13:53:31;3.42;;;2.25;;
19043;SDS011;9654;52.302;8.120;2022-08-19T13:55:58;2.83;;;2.33;;
19043;SDS011;9654;52.302;8.120;2022-08-19T13:58:24;4.28;;;1.98;;
19043;SDS011;9654;52.302;8.120;2022-08-19T14:00:51;2.55;;;2.28;;
19043;SDS011;9654;52.302;8.120;2022-08-19T14:03:18;2.20;;;2.10;;
19043;SDS011;9654;52.302;8.120;2022-08-19T14:05:45;2.63;;;2.08;;
19043;SDS011;9654;52.302;8.120;2022-08-19T14:08:14;2.22;;;2.00;;
19043;SDS011;9654;52.302;8.120;2022-08-19T14:10:41;2.90;;;2.35;;
19043;SDS011;9654;52.302;8.120;2022-08-19T14:13:09;5.45;;;2.20;;
19043;SDS011;9654;52.302;8.120;2022-08-19T14:15:36;3.42;;;2.47;;
19043;SDS011;9654;52.302;8.120;2022-08-19T14:18:04;2.65;;;2.13;;
19043;SDS011;9654;52.302;8.120;2022-08-19T14:20:32;2.53;;;2.35;;
19043;SDS011;9654;52.302;8.120;2022-08-19T14:23:00;2.03;;;1.80;;
19043;SDS011;9654;52.302;8.120;2022-08-19T14:25:29;2.33;;;2.13;;
19043;SDS011;9654;52.302;8.120;2022-08-19T14:27:57;2.13;;;2.03;;
19043;SDS011;9654;52.302;8.120;2022-08-19T14:30:24;3.45;;;2.05;;
19043;SDS011;9654;52.302;8.120;2022-08-19T14:32:53;2.35;;;2.15;;
19043;SDS011;9654;52.302;8.120;2022-08-19T14:35:20;4.13;;;2.25;;
19043;SDS011;9654;52.302;8.120;2022-08-19T14:37:48;2.63;;;2.40;;
19043;SDS011;9654;52.302;8.120;2022-08-19T14:40:18;2.78;;;2.22;;
19043;SDS011;9654;52.302;8.120;2022-08-19T14:42:48;2.47;;;2.28;;
19043;SDS011;9654;52.302;8.120;2022-08-19T14:45:14;2.60;;;2.40;;
19043;SDS011;9654;52.302;8.120;2022-08-19T14:47:41;2.85;;;2.30;;
19043;SDS011;9654;52.302;8.120;2022-08-19T14:50:09;2.97;;;2.45;;
19043;SDS011;9654;52.302;8.120;2022-08-19T14:52:37;2.80;;;2.60;;
19043;SDS011;9654;52.302;8.120;2022-08-19T14:55:04;2.63;;;2.42;;
19043;SDS011;9654;52.302;8.120;2022-08-19T14:57:31;2.85;;;2.65;;
19043;SDS011;9654;52.302;8.120;2022-08-19T14:59:59;2.88;;;2.50;;